createdAt,value
2018-08-04T04:00:52.957Z,67.20
2018-08-04T04:01:52.838Z,66.91
2018-08-04T04:03:45.543Z,66.91
2018-08-04T04:04:45.433Z,66.82
2018-08-04T04:06:38.156Z,66.72
2018-08-04T04:07:38.013Z,66.82
2018-08-04T04:09:30.699Z,66.72
2018-08-04T04:10:30.605Z,66.82
2018-08-04T04:12:23.294Z,67.00
2018-08-04T04:13:23.179Z,66.82
2018-08-04T04:15:15.865Z,66.82
2018-08-04T04:16:15.760Z,67.00
2018-08-04T04:18:08.478Z,66.91
2018-08-04T04:19:08.353Z,66.33
2018-08-04T04:21:01.037Z,67.10
2018-08-04T04:22:00.932Z,67.00
2018-08-04T04:23:53.640Z,66.91
2018-08-04T04:24:53.525Z,67.40
2018-08-04T04:26:46.225Z,67.20
2018-08-04T04:27:46.104Z,67.40
2018-08-04T04:29:38.793Z,67.10
2018-08-04T04:30:38.693Z,67.20
2018-08-04T04:32:31.389Z,67.49
2018-08-04T04:33:31.301Z,67.30
2018-08-04T04:35:23.964Z,67.20
2018-08-04T04:36:23.857Z,67.10
2018-08-04T04:38:16.559Z,67.78
2018-08-04T04:39:16.445Z,67.97
2018-08-04T04:41:09.125Z,67.84
2018-08-04T04:42:09.029Z,68.13
2018-08-04T04:44:01.730Z,68.04
2018-08-04T04:45:01.614Z,68.71
2018-08-04T04:46:54.307Z,68.26
2018-08-04T04:47:54.197Z,68.65
2018-08-04T04:49:46.878Z,68.55
2018-08-04T04:50:46.776Z,68.74
2018-08-04T04:52:39.478Z,68.26
2018-08-04T04:53:39.357Z,67.97
2018-08-04T04:55:32.085Z,68.16
2018-08-04T04:56:31.952Z,68.65
2018-08-04T04:58:24.643Z,68.07
2018-08-04T04:59:24.545Z,68.45
2018-08-04T05:01:17.214Z,68.45
2018-08-04T05:02:17.112Z,68.07
2018-08-04T05:04:09.819Z,68.07
2018-08-04T05:05:09.702Z,68.26
2018-08-04T05:07:02.404Z,67.58
2018-08-04T05:08:02.288Z,67.58
2018-08-04T05:09:55.020Z,68.19
2018-08-04T05:10:54.883Z,68.59
2018-08-04T05:12:47.582Z,67.81
2018-08-04T05:13:47.457Z,67.91
2018-08-04T05:15:40.142Z,67.81
2018-08-04T05:16:40.045Z,67.23
2018-08-04T05:18:32.743Z,67.62
2018-08-04T05:19:32.624Z,67.23
2018-08-04T05:21:25.360Z,67.62
2018-08-04T05:22:25.214Z,67.81
2018-08-04T05:24:17.915Z,67.71
2018-08-04T05:25:17.802Z,67.75
2018-08-04T05:27:10.503Z,67.33
2018-08-04T05:28:10.382Z,67.33
2018-08-04T05:30:03.074Z,68.01
2018-08-04T05:31:02.966Z,68.13
2018-08-04T05:32:55.676Z,67.65
2018-08-04T05:33:55.558Z,67.85
2018-08-04T05:35:48.241Z,67.33
2018-08-04T05:36:48.144Z,67.81
2018-08-04T05:38:40.849Z,67.55
2018-08-04T05:39:40.725Z,67.65
2018-08-04T05:41:33.428Z,67.07
2018-08-04T05:42:33.324Z,67.27
2018-08-04T05:44:26.034Z,67.65
2018-08-04T05:45:25.916Z,67.85
2018-08-04T05:47:18.627Z,68.13
2018-08-04T05:48:18.517Z,67.65
2018-08-04T05:50:11.199Z,67.55
2018-08-04T05:51:11.103Z,67.65
2018-08-04T05:53:03.809Z,67.85
2018-08-04T05:54:03.693Z,67.85
2018-08-04T05:55:56.386Z,67.46
2018-08-04T05:56:56.296Z,67.65
2018-08-04T05:58:48.992Z,66.88
2018-08-04T05:59:48.883Z,66.91
2018-08-04T06:01:41.574Z,67.30
2018-08-04T06:02:41.467Z,67.69
2018-08-04T06:04:34.186Z,67.11
2018-08-04T06:05:34.060Z,67.59
2018-08-04T06:07:26.762Z,67.30
2018-08-04T06:08:26.654Z,67.30
2018-08-04T06:10:19.336Z,67.49
2018-08-04T06:11:19.232Z,67.40
2018-08-04T06:13:11.938Z,67.49
2018-08-04T06:14:11.818Z,68.17
2018-08-04T06:16:04.510Z,68.26
2018-08-04T06:17:04.449Z,67.59
2018-08-04T06:18:57.134Z,67.49
2018-08-04T06:19:57.015Z,67.59
2018-08-04T06:21:49.704Z,67.04
2018-08-04T06:22:49.609Z,66.08
2018-08-04T06:24:42.319Z,66.46
2018-08-04T06:25:42.199Z,65.88
2018-08-04T06:27:34.898Z,65.53
2018-08-04T06:28:34.789Z,64.95
2018-08-04T06:30:27.526Z,64.69
2018-08-04T06:31:27.388Z,64.31
2018-08-04T06:33:20.102Z,64.04
2018-08-04T06:34:19.981Z,64.14
2018-08-04T06:36:12.764Z,63.95
2018-08-04T06:37:12.577Z,62.98
2018-08-04T06:39:05.278Z,61.88
2018-08-04T06:40:05.172Z,59.81
2018-08-04T06:41:57.887Z,53.93
2018-08-04T06:42:57.779Z,50.92
2018-08-04T06:44:50.462Z,49.76
2018-08-04T06:45:50.368Z,50.02
2018-08-04T06:47:43.096Z,52.96
2018-08-04T06:48:42.970Z,53.16
2018-08-04T06:50:35.666Z,53.71
2018-08-04T06:51:35.576Z,54.46
2018-08-04T06:53:28.290Z,56.57
2018-08-04T06:54:28.180Z,57.32
2018-08-04T06:56:20.880Z,58.16
2018-08-04T06:57:20.787Z,58.55
2018-08-04T06:59:13.490Z,57.80
2018-08-04T07:00:13.380Z,57.15
2018-08-04T07:02:06.107Z,54.39
2018-08-04T07:03:05.981Z,55.33
2018-08-04T07:04:58.678Z,57.06
2018-08-04T07:05:58.587Z,56.86
2018-08-04T07:07:51.323Z,55.46
2018-08-04T07:08:51.202Z,55.55
2018-08-04T07:10:43.889Z,55.27
2018-08-04T07:11:43.793Z,54.61
2018-08-04T07:13:36.556Z,53.83
2018-08-04T07:14:36.395Z,54.42
2018-08-04T07:16:29.095Z,54.13
2018-08-04T07:17:29.001Z,54.42
2018-08-04T07:19:21.717Z,53.38
2018-08-04T07:20:21.611Z,52.16
2018-08-04T07:22:14.318Z,49.58
2018-08-04T07:23:14.203Z,47.68
2018-08-04T07:25:06.918Z,45.70
2018-08-04T07:26:06.818Z,44.48
2018-08-04T07:27:59.541Z,46.26
2018-08-04T07:28:59.523Z,45.23
2018-08-04T07:30:52.154Z,42.27
2018-08-04T07:31:52.046Z,44.16
2018-08-04T07:33:44.767Z,46.80
2018-08-04T07:34:44.662Z,46.24
2018-08-04T07:36:37.363Z,47.68
2018-08-04T07:37:37.270Z,47.75
2018-08-04T07:39:29.994Z,47.66
2018-08-04T07:40:29.936Z,47.56
2018-08-04T07:42:22.596Z,46.92
2018-08-04T07:43:22.487Z,47.51
2018-08-04T07:45:15.195Z,47.19
2018-08-04T07:46:15.099Z,45.70
2018-08-04T07:48:07.810Z,44.73
2018-08-04T07:49:07.753Z,44.63
2018-08-04T07:51:00.413Z,41.70
2018-08-04T07:52:00.321Z,41.03
2018-08-04T07:53:53.043Z,41.88
2018-08-04T07:54:52.933Z,41.68
2018-08-04T07:56:45.641Z,39.78
2018-08-04T07:57:45.549Z,38.62
2018-08-04T07:59:38.279Z,37.30
2018-08-04T08:00:38.171Z,36.16
2018-08-04T08:02:30.903Z,35.30
2018-08-04T08:03:30.797Z,35.47
2018-08-04T08:05:23.501Z,35.00
2018-08-04T08:06:23.412Z,34.63
2018-08-04T08:08:16.141Z,35.66
2018-08-04T08:09:16.035Z,35.30
2018-08-04T08:11:08.825Z,34.89
2018-08-04T08:12:08.671Z,34.33
2018-08-04T08:14:01.403Z,34.49
2018-08-04T08:15:01.281Z,33.91
2018-08-04T08:16:53.999Z,35.16
2018-08-04T08:17:53.907Z,35.42
2018-08-04T08:19:46.645Z,36.03
2018-08-04T08:20:46.535Z,35.67
2018-08-04T08:22:39.263Z,35.14
2018-08-04T08:23:39.159Z,35.33
2018-08-04T08:25:31.873Z,36.21
2018-08-04T08:26:31.781Z,35.46
2018-08-04T08:28:24.524Z,35.64
2018-08-04T08:29:24.412Z,35.55
2018-08-04T08:31:17.147Z,35.91
2018-08-04T08:32:17.031Z,35.62
2018-08-04T08:34:09.756Z,37.23
2018-08-04T08:35:09.654Z,38.28
2018-08-04T08:37:02.372Z,39.98
2018-08-04T08:38:02.280Z,40.08
2018-08-04T08:39:55.012Z,40.47
2018-08-04T08:40:54.904Z,40.27
2018-08-04T08:42:47.629Z,41.15
2018-08-04T08:43:47.529Z,41.91
2018-08-04T08:45:40.237Z,42.97
2018-08-04T08:46:40.152Z,43.24
2018-08-04T08:48:32.866Z,43.90
2018-08-04T08:49:32.760Z,44.27
2018-08-04T08:51:25.466Z,44.64
2018-08-04T08:52:25.373Z,45.20
2018-08-04T08:54:18.102Z,46.25
2018-08-04T08:55:17.988Z,46.81
2018-08-04T08:57:10.691Z,47.10
2018-08-04T08:58:10.597Z,47.30
2018-08-04T09:00:03.317Z,47.88
2018-08-04T09:01:03.202Z,47.69
2018-08-04T09:02:55.922Z,47.69
2018-08-04T09:03:55.804Z,45.62
2018-08-04T09:05:48.505Z,45.14
2018-08-04T09:06:48.407Z,45.23
2018-08-04T09:08:41.134Z,45.42
2018-08-04T09:09:41.021Z,45.32
2018-08-04T09:11:33.732Z,45.32
2018-08-04T09:15:45.286Z,45.14
2018-08-04T09:16:45.161Z,44.65
2018-08-04T09:18:37.902Z,45.04
2018-08-04T09:19:37.811Z,45.62
2018-08-04T09:21:30.522Z,46.11
2018-08-04T09:22:30.410Z,46.20
2018-08-04T09:24:23.120Z,45.94
2018-08-04T09:25:23.020Z,46.20
2018-08-04T09:27:15.734Z,46.40
2018-08-04T09:28:15.619Z,46.20
2018-08-04T09:30:08.309Z,46.30
2018-08-04T09:31:08.220Z,46.50
2018-08-04T09:33:00.933Z,46.11
2018-08-04T09:34:00.816Z,45.62
2018-08-04T09:35:53.511Z,46.13
2018-08-04T09:36:53.407Z,46.03
2018-08-04T09:38:46.127Z,45.74
2018-08-04T09:39:46.015Z,45.74
2018-08-04T09:41:38.709Z,45.94
2018-08-04T09:42:38.612Z,45.54
2018-08-04T09:44:31.328Z,44.67
2018-08-04T09:45:31.212Z,44.96
2018-08-04T09:47:23.911Z,45.45
2018-08-04T09:48:23.815Z,45.28
2018-08-04T09:50:16.544Z,45.59
2018-08-04T09:51:16.418Z,45.59
2018-08-04T09:53:09.106Z,44.54
2018-08-04T09:54:09.010Z,44.34
2018-08-04T09:56:01.734Z,43.47
2018-08-04T09:57:01.612Z,43.47
2018-08-04T09:58:54.311Z,44.15
2018-08-04T09:59:54.219Z,43.93
2018-08-04T10:01:46.933Z,44.79
2018-08-04T10:02:46.822Z,45.20
2018-08-04T10:04:39.511Z,45.37
2018-08-04T10:05:39.412Z,45.47
2018-08-04T10:07:32.129Z,44.69
2018-08-04T10:08:32.020Z,44.49
2018-08-04T10:10:24.733Z,43.71
2018-08-04T10:11:24.665Z,44.59
2018-08-04T10:13:17.336Z,45.08
2018-08-04T10:14:17.216Z,44.59
2018-08-04T10:16:09.913Z,44.20
2018-08-04T10:17:09.829Z,44.79
2018-08-04T10:19:02.533Z,44.49
2018-08-04T10:20:02.415Z,45.08
2018-08-04T10:21:55.115Z,43.93
2018-08-04T10:22:55.016Z,43.44
2018-08-04T10:24:47.731Z,44.32
2018-08-04T10:25:47.617Z,43.44
2018-08-04T10:27:40.311Z,44.32
2018-08-04T10:28:40.219Z,44.23
2018-08-04T10:30:32.928Z,44.24
2018-08-04T10:31:32.811Z,43.85
2018-08-04T10:33:25.508Z,43.54
2018-08-04T10:34:25.411Z,43.84
2018-08-04T10:36:18.126Z,44.32
2018-08-04T10:37:18.007Z,43.74
2018-08-04T10:39:10.711Z,44.23
2018-08-04T10:40:10.609Z,43.25
2018-08-04T10:42:03.328Z,42.86
2018-08-04T10:43:03.214Z,43.15
2018-08-04T10:44:55.916Z,41.69
2018-08-04T10:45:55.813Z,41.50
2018-08-04T10:47:48.532Z,41.22
2018-08-04T10:48:48.416Z,41.22
2018-08-04T10:50:41.111Z,41.03
2018-08-04T10:51:41.014Z,42.32
2018-08-04T10:53:33.737Z,42.49
2018-08-04T10:54:33.625Z,42.79
2018-08-04T10:56:26.360Z,42.49
2018-08-04T10:57:26.222Z,43.08
2018-08-04T10:59:18.934Z,42.69
2018-08-04T11:00:18.823Z,43.29
2018-08-04T11:02:11.517Z,42.73
2018-08-04T11:03:11.425Z,42.14
2018-08-04T11:05:04.139Z,42.61
2018-08-04T11:06:04.019Z,43.19
2018-08-04T11:07:56.716Z,42.80
2018-08-04T11:08:56.622Z,42.90
2018-08-04T11:10:49.330Z,42.80
2018-08-04T11:11:49.222Z,42.80
2018-08-04T11:13:41.921Z,42.51
2018-08-04T11:14:41.835Z,42.32
2018-08-04T11:16:34.549Z,42.88
2018-08-04T11:17:34.424Z,42.51
2018-08-04T11:19:27.130Z,41.93
2018-08-04T11:20:27.029Z,42.02
2018-08-04T11:22:19.741Z,41.36
2018-08-04T11:23:19.632Z,41.46
2018-08-04T11:25:12.328Z,41.07
2018-08-04T11:26:12.227Z,41.36
2018-08-04T11:28:04.947Z,41.46
2018-08-04T11:29:04.831Z,41.19
2018-08-04T11:30:57.560Z,41.28
2018-08-04T11:31:57.430Z,40.70
2018-08-04T11:33:50.150Z,41.17
2018-08-04T11:34:50.033Z,40.68
2018-08-04T11:36:42.740Z,41.38
2018-08-04T11:37:42.692Z,41.17
2018-08-04T11:39:35.352Z,41.17
2018-08-04T11:40:35.235Z,40.58
2018-08-04T11:42:27.931Z,40.39
2018-08-04T11:43:27.838Z,40.00
2018-08-04T11:45:20.547Z,39.80
2018-08-04T11:46:20.440Z,40.01
2018-08-04T11:48:13.130Z,39.53
2018-08-04T11:49:13.032Z,39.72
2018-08-04T11:51:05.743Z,39.16
2018-08-04T11:52:05.634Z,39.23
2018-08-04T11:53:58.328Z,40.01
2018-08-04T11:54:58.228Z,39.80
2018-08-04T11:56:50.950Z,39.62
2018-08-04T11:57:50.841Z,40.11
2018-08-04T11:59:43.534Z,39.92
2018-08-04T12:00:43.435Z,40.50
2018-08-04T12:02:36.145Z,39.26
2018-08-04T12:03:36.035Z,39.55
2018-08-04T12:05:28.759Z,39.75
2018-08-04T12:06:28.636Z,39.65
2018-08-04T12:08:21.353Z,39.84
2018-08-04T12:09:21.234Z,40.14
2018-08-04T12:11:13.995Z,40.14
2018-08-04T12:12:13.833Z,39.75
2018-08-04T12:14:06.553Z,39.08
2018-08-04T12:15:06.437Z,39.28
2018-08-04T12:16:59.132Z,38.69
2018-08-04T12:17:59.058Z,39.28
2018-08-04T12:19:51.746Z,38.59
2018-08-04T12:20:51.639Z,38.49
2018-08-04T12:22:44.336Z,39.57
2018-08-04T12:23:44.245Z,39.28
2018-08-04T12:25:36.995Z,39.28
2018-08-04T12:26:36.842Z,38.57
2018-08-04T12:28:29.543Z,39.08
2018-08-04T12:29:29.446Z,38.49
2018-08-04T12:31:22.181Z,38.59
2018-08-04T12:32:22.044Z,38.09
2018-08-04T12:34:14.735Z,37.81
2018-08-04T12:35:14.652Z,38.01
2018-08-04T12:37:07.358Z,38.01
2018-08-04T12:38:07.240Z,38.20
2018-08-04T12:40:00.041Z,38.18
2018-08-04T12:40:59.926Z,38.48
2018-08-04T12:42:52.647Z,37.91
2018-08-04T12:43:52.531Z,37.71
2018-08-04T12:45:45.251Z,38.02
2018-08-04T12:46:45.150Z,37.93
2018-08-04T12:48:37.875Z,37.34
2018-08-04T12:49:37.751Z,37.34
2018-08-04T12:51:30.450Z,36.94
2018-08-04T12:52:30.353Z,37.24
2018-08-04T12:54:23.086Z,38.01
2018-08-04T12:55:22.953Z,37.91
2018-08-04T12:57:15.659Z,38.59
2018-08-04T12:58:15.559Z,37.71
2018-08-04T13:00:08.290Z,38.49
2018-08-04T13:01:08.160Z,38.01
2018-08-04T13:03:00.864Z,36.94
2018-08-04T13:04:00.766Z,36.65
2018-08-04T13:05:53.482Z,36.47
2018-08-04T13:06:53.369Z,36.38
2018-08-04T13:08:46.106Z,36.38
2018-08-04T13:09:45.962Z,35.89
2018-08-04T13:11:38.713Z,36.08
2018-08-04T13:12:38.595Z,36.08
2018-08-04T13:14:31.294Z,36.28
2018-08-04T13:15:31.194Z,36.08
2018-08-04T13:17:23.906Z,35.30
2018-08-04T13:18:23.815Z,36.38
2018-08-04T13:20:16.494Z,36.18
2018-08-04T13:21:16.395Z,36.87
2018-08-04T13:23:09.123Z,36.38
2018-08-04T13:24:09.000Z,36.67
2018-08-04T13:26:01.694Z,35.99
2018-08-04T13:27:01.600Z,36.69
2018-08-04T13:28:54.339Z,36.30
2018-08-04T13:29:54.223Z,36.00
2018-08-04T13:31:46.925Z,35.42
2018-08-04T13:32:46.831Z,35.99
2018-08-04T13:34:39.549Z,35.99
2018-08-04T13:35:39.432Z,35.81
2018-08-04T13:37:32.206Z,35.60
2018-08-04T13:38:32.042Z,36.28
2018-08-04T13:40:24.762Z,36.59
2018-08-04T13:41:24.649Z,36.49
2018-08-04T13:43:17.344Z,37.26
2018-08-04T13:44:17.248Z,37.55
2018-08-04T13:46:09.962Z,37.06
2018-08-04T13:47:09.849Z,36.98
2018-08-04T13:49:02.547Z,37.54
2018-08-04T13:50:02.455Z,37.06
2018-08-04T13:51:55.174Z,37.55
2018-08-04T13:52:55.093Z,36.87
2018-08-04T13:54:47.760Z,36.18
2018-08-04T13:55:47.662Z,36.67
2018-08-04T13:57:40.377Z,36.46
2018-08-04T13:58:40.285Z,36.46
2018-08-04T14:00:32.970Z,36.28
2018-08-04T14:01:32.861Z,36.08
2018-08-04T14:03:25.577Z,35.79
2018-08-04T14:04:25.492Z,35.69
2018-08-04T14:06:18.172Z,35.97
2018-08-04T14:07:18.072Z,36.26
2018-08-04T14:09:10.799Z,35.50
2018-08-04T14:10:10.686Z,35.69
2018-08-04T14:12:03.435Z,35.03
2018-08-04T14:13:03.287Z,34.93
2018-08-04T14:14:56.016Z,35.13
2018-08-04T14:15:55.893Z,35.24
2018-08-04T14:17:48.590Z,36.20
2018-08-04T14:18:48.500Z,36.98
2018-08-04T14:20:41.215Z,36.38
2018-08-04T14:21:41.093Z,36.57
2018-08-04T14:23:33.796Z,37.16
2018-08-04T14:24:33.698Z,36.59
2018-08-04T14:26:26.417Z,36.30
2018-08-04T14:27:26.305Z,35.83
2018-08-04T14:29:19.006Z,35.93
2018-08-04T14:30:18.911Z,35.75
2018-08-04T14:32:11.629Z,35.55
2018-08-04T14:33:11.561Z,35.25
2018-08-04T14:35:04.297Z,35.06
2018-08-04T14:36:04.125Z,34.38
2018-08-04T14:37:56.839Z,35.34
2018-08-04T14:38:56.729Z,35.44
2018-08-04T14:40:49.427Z,35.16
2018-08-04T14:41:49.335Z,34.96
2018-08-04T14:43:42.059Z,36.40
2018-08-04T14:44:41.995Z,36.71
2018-08-04T14:46:34.645Z,36.59
2018-08-04T14:47:34.547Z,37.16
2018-08-04T14:49:27.288Z,37.06
2018-08-04T14:50:27.151Z,37.55
2018-08-04T14:52:19.853Z,38.40
2018-08-04T14:53:19.762Z,38.61
2018-08-04T14:55:12.499Z,37.75
2018-08-04T14:56:12.360Z,37.63
2018-08-04T14:58:05.063Z,38.02
2018-08-04T14:59:05.000Z,38.01
2018-08-04T15:00:57.679Z,38.01
2018-08-04T15:01:57.573Z,38.20
2018-08-04T15:03:50.271Z,38.57
2018-08-04T15:04:50.219Z,38.48
2018-08-04T15:06:42.886Z,39.75
2018-08-04T15:07:42.769Z,39.26
2018-08-04T15:09:35.471Z,39.45
2018-08-04T15:10:35.378Z,39.55
2018-08-04T15:12:28.090Z,39.18
2018-08-04T15:13:27.975Z,39.18
2018-08-04T15:15:20.665Z,39.49
2018-08-04T15:16:20.575Z,38.51
2018-08-04T15:18:13.294Z,38.32
2018-08-04T15:19:13.187Z,38.51
2018-08-04T15:21:05.888Z,38.04
2018-08-04T15:22:05.789Z,38.04
2018-08-04T15:23:58.499Z,38.24
2018-08-04T15:24:58.392Z,38.34
2018-08-04T15:26:51.090Z,38.43
2018-08-04T15:27:51.006Z,38.34
2018-08-04T15:29:43.708Z,38.42
2018-08-04T15:30:43.591Z,38.61
2018-08-04T15:32:36.297Z,38.32
2018-08-04T15:33:36.201Z,37.83
2018-08-04T15:35:28.916Z,37.91
2018-08-04T15:36:28.798Z,38.51
2018-08-04T15:38:21.507Z,37.73
2018-08-04T15:39:21.403Z,37.43
2018-08-04T15:41:14.125Z,37.34
2018-08-04T15:42:14.008Z,37.55
2018-08-04T15:44:06.711Z,37.45
2018-08-04T15:45:06.622Z,37.55
2018-08-04T15:46:59.338Z,37.85
2018-08-04T15:47:59.239Z,37.45
2018-08-04T15:49:51.921Z,38.24
2018-08-04T15:50:51.830Z,37.96
2018-08-04T15:52:44.546Z,38.24
2018-08-04T15:53:44.441Z,38.04
2018-08-04T15:55:37.132Z,38.71
2018-08-04T15:56:37.036Z,38.32
2018-08-04T15:58:29.750Z,38.61
2018-08-04T15:59:29.642Z,38.22
2018-08-04T16:01:22.336Z,38.32
2018-08-04T16:02:22.247Z,38.42
2018-08-04T16:04:14.956Z,38.49
2018-08-04T16:05:14.912Z,38.30
2018-08-04T16:07:07.555Z,38.89
2018-08-04T16:08:07.463Z,38.49
2018-08-04T16:10:00.173Z,38.32
2018-08-04T16:11:00.068Z,38.32
2018-08-04T16:12:52.765Z,38.42
2018-08-04T16:13:52.667Z,38.51
2018-08-04T16:15:45.393Z,38.81
2018-08-04T16:16:45.365Z,38.22
2018-08-04T16:18:37.985Z,38.51
2018-08-04T16:19:37.888Z,38.59
2018-08-04T16:21:30.611Z,39.47
2018-08-04T16:22:30.494Z,39.37
2018-08-04T16:24:23.238Z,38.89
2018-08-04T16:25:23.095Z,39.08
2018-08-04T16:27:15.820Z,39.57
2018-08-04T16:28:15.703Z,39.57
2018-08-04T16:30:08.405Z,39.75
2018-08-04T16:31:08.317Z,40.04
2018-08-04T16:33:01.037Z,40.14
2018-08-04T16:34:00.913Z,39.94
2018-08-04T16:35:53.618Z,41.02
2018-08-04T16:36:53.521Z,41.31
2018-08-04T16:38:46.235Z,41.80
2018-08-04T16:39:46.127Z,41.60
2018-08-04T16:41:38.865Z,41.67
2018-08-04T16:42:38.728Z,42.19
2018-08-04T16:44:31.444Z,42.55
2018-08-04T16:45:31.330Z,42.65
2018-08-04T16:47:25.030Z,43.04
2018-08-04T16:48:24.933Z,43.33
2018-08-04T16:50:17.649Z,43.33
2018-08-04T16:51:17.544Z,43.73
2018-08-04T16:53:10.236Z,44.31
2018-08-04T16:54:10.143Z,43.73
2018-08-04T16:56:02.852Z,44.41
2018-08-04T16:57:02.737Z,44.51
2018-08-04T16:58:55.436Z,45.36
2018-08-04T16:59:55.340Z,45.26
2018-08-04T17:01:48.055Z,45.36
2018-08-04T17:02:47.936Z,45.17
2018-08-04T17:04:40.633Z,45.68
2018-08-04T17:05:40.539Z,45.56
2018-08-04T17:07:33.255Z,45.65
2018-08-04T17:08:33.142Z,45.56
2018-08-04T17:10:25.852Z,45.65
2018-08-04T17:11:25.743Z,45.85
2018-08-04T17:13:18.458Z,45.95
2018-08-04T17:14:18.342Z,45.75
2018-08-04T17:16:11.041Z,45.68
2018-08-04T17:17:10.942Z,45.58
2018-08-04T17:19:03.799Z,45.75
2018-08-04T17:20:03.544Z,45.75
2018-08-04T17:21:56.285Z,46.14
2018-08-04T17:22:56.140Z,46.24
2018-08-04T17:24:48.855Z,47.02
2018-08-04T17:25:48.743Z,45.85
2018-08-04T17:27:41.434Z,46.63
2018-08-04T17:28:41.348Z,46.53
2018-08-04T17:30:34.060Z,47.19
2018-08-04T17:31:33.943Z,47.29
2018-08-04T17:33:26.637Z,47.68
2018-08-04T17:34:26.549Z,48.17
2018-08-04T17:36:19.263Z,48.44
2018-08-04T17:37:19.200Z,48.34
2018-08-04T17:39:11.849Z,49.12
2018-08-04T17:40:11.749Z,48.83
2018-08-04T17:42:04.467Z,49.02
2018-08-04T17:43:04.353Z,49.78
2018-08-04T17:44:57.043Z,49.58
2018-08-04T17:45:56.950Z,50.16
2018-08-04T17:47:49.662Z,49.99
2018-08-04T17:48:49.544Z,49.78
2018-08-04T17:50:42.241Z,49.78
2018-08-04T17:51:42.145Z,50.26
2018-08-04T17:53:34.880Z,50.63
2018-08-04T17:54:34.747Z,50.65
2018-08-04T17:56:27.443Z,50.85
2018-08-04T17:57:27.360Z,50.65
2018-08-04T17:59:20.059Z,54.26
2018-08-04T18:00:19.946Z,53.58
2018-08-04T18:02:12.639Z,54.82
2018-08-04T18:03:12.537Z,54.50
2018-08-04T18:05:05.246Z,54.76
2018-08-04T18:06:05.138Z,54.57
2018-08-04T18:07:57.825Z,56.03
2018-08-04T18:08:57.731Z,56.87
2018-08-04T18:10:50.445Z,56.12
2018-08-04T18:11:50.327Z,57.87
2018-08-04T18:13:43.102Z,56.59
2018-08-04T18:14:42.921Z,57.07
2018-08-04T18:16:35.636Z,57.07
2018-08-04T18:17:35.517Z,56.87
2018-08-04T18:19:28.230Z,56.97
2018-08-04T18:20:28.112Z,56.68
2018-08-04T18:22:20.802Z,56.39
2018-08-04T18:23:20.707Z,56.77
2018-08-04T18:25:13.492Z,57.04
2018-08-04T18:26:13.368Z,57.23
2018-08-04T18:28:06.056Z,57.82
2018-08-04T18:29:05.966Z,57.53
2018-08-04T18:30:58.708Z,58.01
2018-08-04T18:31:58.584Z,57.62
2018-08-04T18:33:51.247Z,58.59
2018-08-04T18:34:51.146Z,58.79
2018-08-04T18:36:43.863Z,58.11
2018-08-04T18:37:43.794Z,58.31
2018-08-04T18:39:36.440Z,58.37
2018-08-04T18:40:36.337Z,59.15
2018-08-04T18:42:29.049Z,58.76
2018-08-04T18:43:28.925Z,59.25
2018-08-04T18:45:21.617Z,58.86
2018-08-04T18:46:21.521Z,59.34
2018-08-04T18:48:14.225Z,59.05
2018-08-04T18:49:14.114Z,60.12
2018-08-04T18:51:06.796Z,60.19
2018-08-04T18:52:06.698Z,60.38
2018-08-04T18:53:59.407Z,60.68
2018-08-04T18:54:59.295Z,60.77
2018-08-04T18:56:51.981Z,60.68
2018-08-04T18:57:51.882Z,61.45
2018-08-04T18:59:44.589Z,61.42
2018-08-04T19:00:44.468Z,62.10
2018-08-04T19:02:37.158Z,62.19
2018-08-04T19:03:37.062Z,62.10
2018-08-04T19:05:29.763Z,63.07
2018-08-04T19:06:29.648Z,63.56
2018-08-04T19:08:22.337Z,63.72
2018-08-04T19:09:22.239Z,64.20
2018-08-04T19:11:14.938Z,64.20
2018-08-04T19:12:14.827Z,64.40
2018-08-04T19:14:07.517Z,64.30
2018-08-04T19:15:07.419Z,65.27
2018-08-04T19:17:00.122Z,65.47
2018-08-04T19:18:00.009Z,65.85
2018-08-04T19:19:52.694Z,65.05
2018-08-04T19:20:52.595Z,65.63
2018-08-04T19:22:45.301Z,65.92
2018-08-04T19:23:45.185Z,66.40
2018-08-04T19:25:37.882Z,65.92
2018-08-04T19:26:37.777Z,66.40
2018-08-04T19:28:30.569Z,66.11
2018-08-04T19:29:30.380Z,66.40
2018-08-04T19:31:23.068Z,66.08
2018-08-04T19:32:22.968Z,66.27
2018-08-04T19:34:15.674Z,66.08
2018-08-04T19:35:15.555Z,66.37
2018-08-04T19:37:08.246Z,66.95
2018-08-04T19:38:08.142Z,67.05
2018-08-04T19:40:00.853Z,67.14
2018-08-04T19:41:00.731Z,67.05
2018-08-04T19:42:53.420Z,67.14
2018-08-04T19:43:53.322Z,67.11
2018-08-04T19:45:46.022Z,67.88
2018-08-04T19:46:45.910Z,67.50
2018-08-04T19:48:38.590Z,68.27
2018-08-04T19:49:38.497Z,68.08
2018-08-04T19:51:31.205Z,67.50
2018-08-04T19:52:31.085Z,67.88
2018-08-04T19:54:23.773Z,67.98
2018-08-04T19:55:23.675Z,67.60
2018-08-04T19:57:16.373Z,67.46
2018-08-04T19:58:16.261Z,67.98
2018-08-04T20:00:08.981Z,67.85
2018-08-04T20:01:08.843Z,68.33
2018-08-04T20:03:01.550Z,68.33
2018-08-04T20:04:01.434Z,68.05
2018-08-04T20:05:54.130Z,68.15
2018-08-04T20:06:54.025Z,68.15
2018-08-04T20:08:46.738Z,68.63
2018-08-04T20:09:46.614Z,68.05
2018-08-04T20:11:39.304Z,67.63
2018-08-04T20:12:39.203Z,68.11
2018-08-04T20:14:31.913Z,68.01
2018-08-04T20:15:31.798Z,68.01
2018-08-04T20:17:24.486Z,68.11
2018-08-04T20:18:24.381Z,67.91
2018-08-04T20:20:17.089Z,68.79
2018-08-04T20:21:16.976Z,68.49
2018-08-04T20:23:09.652Z,68.59
2018-08-04T20:24:09.556Z,68.59
2018-08-04T20:26:02.265Z,69.46
2018-08-04T20:27:02.142Z,69.37
2018-08-04T20:28:54.835Z,69.85
2018-08-04T20:29:54.732Z,69.56
2018-08-04T20:31:47.438Z,70.30
2018-08-04T20:32:47.310Z,70.40
2018-08-04T20:34:40.006Z,70.53
2018-08-04T20:35:39.907Z,70.20
2018-08-04T20:37:32.612Z,70.98
2018-08-04T20:38:32.493Z,70.88
2018-08-04T20:40:25.176Z,70.88
2018-08-04T20:41:25.081Z,71.26
2018-08-04T20:43:17.792Z,71.17
2018-08-04T20:44:17.669Z,71.17
2018-08-04T20:46:10.358Z,71.46
2018-08-04T20:47:10.255Z,71.94
2018-08-04T20:49:02.969Z,71.23
2018-08-04T20:50:02.846Z,71.81
2018-08-04T20:51:55.540Z,71.91
2018-08-04T20:52:55.491Z,71.91
2018-08-04T20:54:48.152Z,72.30
2018-08-04T20:55:48.029Z,72.39
2018-08-04T20:57:40.720Z,72.68
2018-08-04T20:58:40.617Z,72.68
2018-08-04T21:00:33.323Z,72.88
2018-08-04T21:01:33.205Z,73.22
2018-08-04T21:03:25.888Z,73.13
2018-08-04T21:04:25.785Z,73.42
2018-08-04T21:06:18.490Z,73.61
2018-08-04T21:07:18.367Z,73.52
2018-08-04T21:09:11.059Z,74.00
2018-08-04T21:10:10.955Z,74.19
2018-08-04T21:12:03.656Z,73.90
2018-08-04T21:13:03.542Z,74.58
2018-08-04T21:14:56.228Z,74.38
2018-08-04T21:15:56.122Z,74.48
2018-08-04T21:17:48.828Z,74.38
2018-08-04T21:18:48.711Z,74.96
2018-08-04T21:20:41.391Z,75.26
2018-08-04T21:21:41.293Z,74.58
2018-08-04T21:23:33.990Z,74.87
2018-08-04T21:24:33.876Z,74.77
2018-08-04T21:26:26.563Z,75.26
2018-08-04T21:27:26.465Z,75.12
2018-08-04T21:29:19.166Z,75.22
2018-08-04T21:30:19.040Z,75.22
2018-08-04T21:32:11.725Z,74.93
2018-08-04T21:33:11.628Z,75.22
2018-08-04T21:35:04.339Z,75.22
2018-08-04T21:36:04.216Z,75.70
2018-08-04T21:37:56.894Z,75.60
2018-08-04T21:38:56.812Z,75.41
2018-08-04T21:40:49.499Z,76.09
2018-08-04T21:41:49.374Z,76.09
2018-08-04T21:43:42.059Z,75.79
2018-08-04T21:44:41.961Z,76.37
2018-08-04T21:46:34.656Z,76.18
2018-08-04T21:47:34.545Z,76.37
2018-08-04T21:49:27.255Z,76.24
2018-08-04T21:50:27.127Z,77.30
2018-08-04T21:52:19.862Z,76.86
2018-08-04T21:53:19.715Z,76.24
2018-08-04T21:55:12.396Z,76.95
2018-08-04T21:56:12.295Z,77.01
2018-08-04T21:58:04.994Z,77.21
2018-08-04T21:59:04.881Z,77.50
